Weather at Flying P Airport

Public forecast

Using degrees Fahrenheit for public forecast. Weather courtesy of forecast.io.

Closest aviation weather report (METAR) to Flying P Airport

Closest report is Denton Municipal Airport, 9.4 nm (17.4 km) ENE. Retrieved 2020/11/24 20:22 UTC (0 seconds ago):

KDTO 242022Z 17015G22KT 10SM -RA OVC010 19/17 A2977 RMK AO2 CIG 005V014 P0000 T01940172

Closest aviation forecast (TAF) to Flying P Airport

Closest forecast is Fort Worth Alliance Airport, 9.6 nm (17.7 km) SSE. Retrieved 2020/11/24 18:30 UTC (2 hours ago):

TAF KAFW 241729Z 2418/2518 16011KT 5SM BR OVC007 FM241900 17014G25KT P6SM OVC017 FM242200 17014G25KT P6SM BKN070 FM250100 19012KT P6SM FEW100 WS020/22040KT FM250300 24010KT P6SM FEW100 FM250600 30012G24KT P6SM FEW250